Time;durP1;ratioP1;P1;durP2;ratioP2;P2;SDS_P1;SDS_P2;PMS_P1;PMS_P2;Temp;Humidity;BMP_temperature;BMP_pressure;BME280_temperature;BME280_humidity;BME280_pressure;Samples;Min_cycle;Max_cycle;Signal;HPM_P1;HPM_P2
2022/07/06 00:02:03;;;;;;;0.73;0.50;;;;;;;26.25;41.62;101225.59;5051752;28;20036;-49
2022/07/06 00:04:30;;;;;;;1.08;0.45;;;;;;;26.15;41.32;101223.03;5046430;28;20590;-48
2022/07/06 00:06:56;;;;;;;1.63;0.32;;;;;;;26.14;42.32;101222.22;5049929;28;20060;-50
2022/07/06 00:09:22;;;;;;;1.23;0.40;;;;;;;26.19;42.15;101224.06;5049166;28;20025;-52
2022/07/06 00:11:48;;;;;;;0.93;0.50;;;;;;;26.23;42.77;101228.66;5047374;28;20022;-48
2022/07/06 00:14:14;;;;;;;0.40;0.40;;;;;;;26.38;42.73;101224.03;5056723;28;20023;-50
2022/07/06 00:16:41;;;;;;;0.80;0.43;;;;;;;26.13;42.60;101223.34;5061376;28;20032;-51
2022/07/06 00:19:07;;;;;;;1.02;0.40;;;;;;;25.78;43.45;101222.03;5050187;28;20069;-48
2022/07/06 00:21:33;;;;;;;0.95;0.52;;;;;;;25.83;43.21;101221.94;5030149;28;20125;-50
2022/07/06 00:24:00;;;;;;;1.60;0.50;;;;;;;25.97;43.07;101217.31;5050849;28;20139;-50
2022/07/06 00:26:26;;;;;;;0.98;0.40;;;;;;;25.93;42.95;101224.53;5048375;28;20052;-54
2022/07/06 00:28:52;;;;;;;0.50;0.50;;;;;;;25.97;42.98;101208.25;5052397;28;20047;-50
2022/07/06 00:31:19;;;;;;;0.47;0.45;;;;;;;25.92;43.28;101213.84;5050016;28;20090;-56
2022/07/06 00:33:45;;;;;;;3.13;0.60;;;;;;;25.93;44.11;101210.81;5053795;28;20068;-54
2022/07/06 00:36:11;;;;;;;1.10;0.63;;;;;;;26.06;44.24;101206.47;5055362;28;20519;-54
2022/07/06 00:38:38;;;;;;;0.75;0.40;;;;;;;25.92;43.31;101198.19;5041562;28;20048;-55
2022/07/06 00:41:04;;;;;;;0.65;0.50;;;;;;;25.93;44.27;101191.63;5043022;28;20018;-54
2022/07/06 00:43:50;;;;;;;0.82;0.60;;;;;;;25.41;44.95;101201.72;5054108;28;20470;-53
2022/07/06 00:46:17;;;;;;;1.95;0.50;;;;;;;25.59;44.13;101196.53;5046540;28;20037;-54
2022/07/06 00:48:43;;;;;;;0.80;0.50;;;;;;;25.34;44.26;101195.81;5055505;28;20119;-54
2022/07/06 00:51:11;;;;;;;1.75;0.50;;;;;;;25.20;45.52;101186.69;5054127;28;20033;-56
2022/07/06 00:53:37;;;;;;;3.95;1.38;;;;;;;24.99;45.23;101195.16;5053950;28;20105;-57
2022/07/06 00:56:04;;;;;;;0.50;0.50;;;;;;;25.02;44.54;101189.09;5055370;28;20495;-57
2022/07/06 00:58:30;;;;;;;1.13;0.70;;;;;;;25.12;45.20;101190.91;5052417;28;20029;-58
2022/07/06 01:00:56;;;;;;;2.20;0.60;;;;;;;25.08;45.06;101189.88;5053188;28;20029;-57
2022/07/06 01:03:22;;;;;;;1.08;0.57;;;;;;;24.99;45.79;101192.44;5035992;28;20033;-55
2022/07/06 01:05:50;;;;;;;0.40;0.40;;;;;;;24.85;45.51;101191.50;5054189;28;20033;-56
2022/07/06 01:08:17;;;;;;;1.80;0.60;;;;;;;24.88;46.01;101188.19;5049008;28;20053;-56
2022/07/06 01:10:43;;;;;;;1.15;0.63;;;;;;;24.89;45.83;101186.28;5046822;28;20160;-56
2022/07/06 01:13:10;;;;;;;1.15;0.60;;;;;;;24.93;45.70;101182.66;5047711;28;20025;-55
2022/07/06 01:15:36;;;;;;;1.63;0.60;;;;;;;24.99;45.80;101178.75;5050302;28;20056;-54
2022/07/06 01:18:03;;;;;;;0.50;0.50;;;;;;;25.14;44.76;101185.94;5047970;28;20037;-54
2022/07/06 01:20:30;;;;;;;0.63;0.40;;;;;;;24.95;44.97;101177.69;5049035;28;20017;-52
2022/07/06 01:22:59;;;;;;;3.67;0.60;;;;;;;24.80;45.49;101174.31;5052816;28;20029;-53
2022/07/06 01:25:26;;;;;;;1.60;0.40;;;;;;;24.70;45.68;101175.25;5053850;28;20362;-52
2022/07/06 01:27:52;;;;;;;1.10;0.70;;;;;;;24.67;47.05;101175.88;5071047;28;20029;-53
2022/07/06 01:30:19;;;;;;;0.60;0.40;;;;;;;24.75;45.65;101184.22;5056047;28;20060;-52
2022/07/06 01:32:47;;;;;;;0.75;0.50;;;;;;;24.61;46.62;101175.09;5042918;28;20029;-56
2022/07/06 01:35:15;;;;;;;2.70;0.57;;;;;;;24.55;46.33;101178.22;5053714;28;20021;-56
2022/07/06 01:37:42;;;;;;;1.30;0.50;;;;;;;24.40;45.67;101174.53;5053994;28;20453;-57
2022/07/06 01:40:10;;;;;;;0.60;0.57;;;;;;;24.36;46.76;101184.41;5036278;28;20112;-55
2022/07/06 01:42:37;;;;;;;1.45;0.85;;;;;;;24.35;46.62;101179.22;5053844;28;20029;-60
2022/07/06 01:45:04;;;;;;;1.83;1.00;;;;;;;24.19;47.12;101175.81;5053144;28;20036;-53
2022/07/06 01:47:32;;;;;;;0.68;0.55;;;;;;;23.97;47.24;101176.28;5054299;28;20028;-58
2022/07/06 01:49:59;;;;;;;1.63;0.40;;;;;;;24.18;47.27;101182.38;5052985;28;20484;-56
2022/07/06 01:52:26;;;;;;;2.13;0.50;;;;;;;24.09;46.74;101173.16;5053570;28;20029;-58
2022/07/06 01:54:53;;;;;;;1.38;0.68;;;;;;;23.86;47.36;101166.56;5038290;28;20091;-56
2022/07/06 01:57:19;;;;;;;1.25;0.47;;;;;;;23.90;47.44;101165.69;5016421;28;20029;-56
2022/07/06 01:59:45;;;;;;;1.52;0.43;;;;;;;23.92;48.29;101166.22;5033516;28;20159;-56
2022/07/06 02:02:12;;;;;;;1.38;0.60;;;;;;;23.88;47.44;101170.66;5033996;28;20125;-56
2022/07/06 02:04:38;;;;;;;0.68;0.55;;;;;;;23.97;47.41;101168.91;5048528;28;20515;-56
2022/07/06 02:07:04;;;;;;;0.82;0.50;;;;;;;24.13;47.35;101179.69;5035831;28;20128;-56
2022/07/06 02:09:30;;;;;;;1.40;0.47;;;;;;;24.15;47.03;101172.84;5054316;28;20051;-56
2022/07/06 02:11:56;;;;;;;0.40;0.40;;;;;;;24.48;46.77;101184.00;5053905;28;20024;-57
2022/07/06 02:14:23;;;;;;;0.52;0.50;;;;;;;24.78;45.57;101179.28;5053887;28;20021;-57
2022/07/06 02:16:49;;;;;;;0.85;0.50;;;;;;;24.89;45.33;101194.47;5054096;28;20112;-57
2022/07/06 02:19:16;;;;;;;0.32;0.32;;;;;;;25.13;44.52;101198.00;5053808;28;20021;-57
2022/07/06 02:21:42;;;;;;;0.82;0.47;;;;;;;25.38;44.70;101193.28;5053543;28;20083;-57
2022/07/06 02:24:08;;;;;;;0.50;0.50;;;;;;;25.68;43.95;101195.56;5053805;28;20025;-57
2022/07/06 02:26:34;;;;;;;1.48;0.50;;;;;;;26.02;43.53;101192.53;5053549;28;20059;-57
2022/07/06 02:29:00;;;;;;;0.80;0.57;;;;;;;25.94;43.09;101193.25;5053683;28;20104;-57
2022/07/06 02:31:26;;;;;;;0.47;0.47;;;;;;;25.77;43.80;101199.28;5053280;28;20017;-55
2022/07/06 02:33:53;;;;;;;0.43;0.40;;;;;;;25.83;43.51;101197.28;5040641;28;20473;-56
2022/07/06 02:36:19;;;;;;;0.93;0.70;;;;;;;25.85;43.43;101195.03;5033392;28;20041;-56
2022/07/06 02:38:45;;;;;;;1.17;0.40;;;;;;;25.59;43.93;101194.59;5055836;28;20066;-56
2022/07/06 02:41:11;;;;;;;0.85;0.30;;;;;;;25.66;43.89;101194.22;5063717;28;20040;-56
2022/07/06 02:43:39;;;;;;;0.57;0.40;;;;;;;25.59;43.82;101199.25;5047596;28;20056;-56
2022/07/06 02:46:05;;;;;;;0.50;0.40;;;;;;;25.40;44.40;101197.34;5038109;28;20056;-56
2022/07/06 02:48:32;;;;;;;1.02;0.60;;;;;;;25.28;44.31;101192.31;5053115;28;20094;-56
2022/07/06 02:50:58;;;;;;;1.25;0.40;;;;;;;25.46;44.15;101203.56;5052597;28;20035;-56
2022/07/06 02:53:24;;;;;;;1.73;0.30;;;;;;;25.47;44.27;101195.03;5053296;28;20496;-57
2022/07/06 02:55:51;;;;;;;1.25;0.50;;;;;;;25.11;44.82;101194.75;5051617;28;20090;-57
2022/07/06 02:58:17;;;;;;;0.77;0.60;;;;;;;25.21;45.01;101197.38;5051392;28;20032;-57
2022/07/06 03:00:43;;;;;;;1.13;0.45;;;;;;;25.32;44.84;101199.94;5045882;28;20477;-57
2022/07/06 03:03:10;;;;;;;1.52;0.50;;;;;;;25.09;45.31;101196.16;5068665;28;20432;-57
2022/07/06 03:05:36;;;;;;;1.77;0.68;;;;;;;24.55;46.48;101202.84;5059291;28;20048;-57
2022/07/06 03:08:02;;;;;;;0.60;0.60;;;;;;;24.35;47.27;101201.94;5052545;28;20049;-57
2022/07/06 03:10:28;;;;;;;1.08;0.57;;;;;;;23.90;48.32;101201.22;5052809;28;20095;-57
2022/07/06 03:12:55;;;;;;;0.77;0.50;;;;;;;23.79;48.83;101202.41;5052777;28;20025;-56
2022/07/06 03:15:21;;;;;;;1.35;0.50;;;;;;;23.32;49.95;101217.47;5053015;28;20401;-52
2022/07/06 03:17:47;;;;;;;0.82;0.50;;;;;;;22.77;51.45;101204.88;5052549;28;20078;-54
2022/07/06 03:20:13;;;;;;;0.40;0.40;;;;;;;22.51;52.16;101209.59;5052769;28;20058;-52
2022/07/06 03:22:39;;;;;;;0.68;0.52;;;;;;;22.36;52.82;101211.25;5052238;28;20021;-53
2022/07/06 03:25:06;;;;;;;0.52;0.52;;;;;;;22.15;53.56;101209.63;5052510;28;20112;-55
2022/07/06 03:27:33;;;;;;;0.77;0.50;;;;;;;21.81;54.53;101202.00;5052288;28;20025;-52
2022/07/06 03:29:59;;;;;;;1.35;0.80;;;;;;;21.70;54.95;101197.63;5033616;28;20036;-51
2022/07/06 03:32:26;;;;;;;2.05;0.60;;;;;;;21.62;55.22;101206.34;5029398;28;20381;-48
2022/07/06 03:34:52;;;;;;;1.90;0.70;;;;;;;21.19;56.58;101202.97;5036199;28;20078;-48
2022/07/06 03:37:18;;;;;;;1.15;0.50;;;;;;;21.33;56.02;101206.03;5036677;28;20021;-49
2022/07/06 03:39:44;;;;;;;1.60;0.52;;;;;;;21.10;56.40;101199.16;5060318;28;20064;-51
2022/07/06 03:42:11;;;;;;;1.10;0.50;;;;;;;20.99;57.29;101205.63;5051740;28;20568;-50
2022/07/06 03:44:37;;;;;;;2.63;0.60;;;;;;;20.84;57.28;101209.09;5034243;28;20086;-49
2022/07/06 03:47:03;;;;;;;1.27;0.70;;;;;;;20.68;57.95;101207.41;5051282;28;20036;-48
2022/07/06 03:49:29;;;;;;;1.20;0.52;;;;;;;20.36;58.96;101215.59;5052338;28;20549;-50
2022/07/06 03:51:56;;;;;;;0.73;0.60;;;;;;;20.41;58.98;101212.91;5052106;28;20025;-50
2022/07/06 03:54:22;;;;;;;1.25;0.60;;;;;;;20.34;59.80;101215.06;5052244;28;20104;-51
2022/07/06 03:56:48;;;;;;;0.90;0.80;;;;;;;20.37;59.14;101209.06;5052024;28;20029;-51
2022/07/06 03:59:14;;;;;;;1.20;0.80;;;;;;;20.28;59.58;101220.47;5051918;28;20416;-51
2022/07/06 04:01:40;;;;;;;1.73;1.35;;;;;;;19.93;60.45;101214.72;5042191;28;20032;-50
2022/07/06 04:04:07;;;;;;;2.65;1.55;;;;;;;19.98;60.73;101225.66;5050043;28;20048;-50
2022/07/06 04:06:34;;;;;;;1.27;1.00;;;;;;;19.84;61.11;101224.44;5051868;28;20461;-49
2022/07/06 04:09:01;;;;;;;1.05;0.77;;;;;;;19.75;60.86;101226.81;5050883;28;20127;-51
2022/07/06 04:11:27;;;;;;;0.68;0.50;;;;;;;19.61;61.11;101233.75;5045898;28;20044;-51
2022/07/06 04:13:54;;;;;;;1.48;0.73;;;;;;;19.49;61.30;101229.25;5051111;28;20481;-51
2022/07/06 04:16:21;;;;;;;2.30;0.70;;;;;;;19.58;61.20;101239.66;5052234;28;20025;-52
2022/07/06 04:18:47;;;;;;;0.68;0.40;;;;;;;19.72;59.98;101238.19;5052229;28;20119;-48
2022/07/06 04:21:13;;;;;;;0.70;0.40;;;;;;;19.60;60.38;101241.06;5051973;28;20446;-51
2022/07/06 04:23:39;;;;;;;1.60;0.80;;;;;;;19.56;60.67;101239.91;5051953;28;20028;-51
2022/07/06 04:26:05;;;;;;;2.05;1.20;;;;;;;19.70;60.54;101240.34;5051797;28;20433;-51
2022/07/06 04:28:32;;;;;;;1.70;1.60;;;;;;;19.79;60.14;101252.38;5051681;28;20056;-50
2022/07/06 04:30:58;;;;;;;1.90;1.13;;;;;;;19.77;60.32;101254.56;5051478;28;20473;-51
2022/07/06 04:33:24;;;;;;;2.22;1.48;;;;;;;19.78;60.34;101256.19;5051293;28;20027;-52
2022/07/06 04:35:50;;;;;;;1.02;0.93;;;;;;;19.75;60.60;101253.97;5051707;28;20032;-51
2022/07/06 04:38:17;;;;;;;0.50;0.50;;;;;;;19.71;60.87;101255.53;5051525;28;20445;-52
2022/07/06 04:40:46;;;;;;;0.75;0.50;;;;;;;19.69;60.84;101260.44;5051308;28;20031;-51
2022/07/06 04:43:12;;;;;;;0.93;0.50;;;;;;;19.72;61.09;101266.19;5051583;28;20040;-51
2022/07/06 04:45:39;;;;;;;1.30;0.68;;;;;;;19.53;61.82;101267.56;5051691;28;20033;-51
2022/07/06 04:48:06;;;;;;;0.60;0.40;;;;;;;19.66;61.76;101269.09;5051525;28;20036;-51
2022/07/06 04:50:32;;;;;;;1.88;0.70;;;;;;;19.63;62.56;101267.69;5051427;28;20060;-51
2022/07/06 04:52:59;;;;;;;2.33;0.80;;;;;;;19.60;62.41;101273.66;5051221;28;20048;-49
2022/07/06 04:55:25;;;;;;;0.80;0.50;;;;;;;19.63;62.95;101273.13;5051580;28;20021;-50
2022/07/06 04:57:52;;;;;;;2.05;0.82;;;;;;;19.63;62.68;101272.31;5051511;28;20397;-49
2022/07/06 05:00:18;;;;;;;0.90;0.60;;;;;;;19.61;62.50;101271.75;5050680;28;20033;-50
2022/07/06 05:02:45;;;;;;;0.88;0.60;;;;;;;19.45;62.97;101270.75;5051257;28;20033;-51
2022/07/06 05:05:11;;;;;;;1.45;0.63;;;;;;;19.69;62.77;101269.38;5051635;28;20047;-50
2022/07/06 05:07:39;;;;;;;0.80;0.60;;;;;;;19.41;63.08;101280.47;5050863;28;20512;-50
2022/07/06 05:10:08;;;;;;;0.57;0.47;;;;;;;19.50;62.94;101281.66;5051491;28;20033;-48
2022/07/06 05:12:34;;;;;;;0.40;0.40;;;;;;;19.52;62.25;101272.19;5051140;28;20025;-51
2022/07/06 05:15:01;;;;;;;1.17;0.80;;;;;;;19.56;62.95;101277.09;5051533;28;20049;-49
2022/07/06 05:17:27;;;;;;;1.48;0.88;;;;;;;19.56;62.45;101279.81;5051380;28;20032;-48
2022/07/06 05:19:53;;;;;;;1.35;0.68;;;;;;;19.47;62.76;101284.88;5053773;28;20025;-50
2022/07/06 05:22:20;;;;;;;1.10;0.77;;;;;;;19.52;62.79;101290.38;5054987;28;20083;-51
2022/07/06 05:24:46;;;;;;;2.35;0.70;;;;;;;19.63;62.53;101299.47;5038456;28;20052;-51
2022/07/06 05:27:13;;;;;;;0.93;0.60;;;;;;;19.65;62.61;101298.13;5034693;28;20425;-51
2022/07/06 05:29:39;;;;;;;1.05;0.70;;;;;;;19.67;61.74;101293.28;5035165;28;20159;-51
2022/07/06 05:32:05;;;;;;;2.50;0.45;;;;;;;19.61;62.41;101296.22;5035039;28;20377;-51
2022/07/06 05:34:31;;;;;;;1.88;0.50;;;;;;;19.62;62.78;101295.13;5034725;28;20041;-48
2022/07/06 05:36:58;;;;;;;1.40;0.60;;;;;;;19.62;62.49;101293.22;5034895;28;20025;-51
2022/07/06 05:39:24;;;;;;;0.52;0.40;;;;;;;19.69;62.01;101293.84;5034623;28;20024;-51
2022/07/06 05:41:50;;;;;;;0.90;0.60;;;;;;;19.56;63.23;101296.94;5052017;28;20114;-50
2022/07/06 05:44:16;;;;;;;5.40;0.60;;;;;;;19.51;63.56;101300.41;5054815;28;20025;-48
2022/07/06 05:46:42;;;;;;;0.98;0.70;;;;;;;19.41;64.68;101302.19;5054592;28;20036;-51
2022/07/06 05:51:55;;;;;;;1.23;0.95;;;;;;;19.41;65.26;101302.19;5054565;28;20090;-51
2022/07/06 05:54:21;;;;;;;1.52;0.90;;;;;;;19.57;64.65;101300.47;5054271;28;20497;-49
2022/07/06 05:56:48;;;;;;;1.77;0.82;;;;;;;19.43;65.27;101292.72;5046255;28;20037;-48
2022/07/06 05:59:14;;;;;;;2.78;1.58;;;;;;;19.22;66.17;101294.38;5050672;28;20477;-52
2022/07/06 06:01:40;;;;;;;2.50;1.38;;;;;;;19.23;66.26;101296.00;5053917;28;20112;-50
2022/07/06 06:04:07;;;;;;;2.10;1.00;;;;;;;19.19;66.82;101305.72;5054030;28;20024;-52
2022/07/06 06:06:33;;;;;;;1.00;0.77;;;;;;;18.97;66.91;101304.88;5048300;28;20021;-52
2022/07/06 06:08:59;;;;;;;1.77;1.33;;;;;;;19.05;66.64;101300.94;5053684;28;20045;-51
2022/07/06 06:11:25;;;;;;;2.50;0.95;;;;;;;19.07;67.12;101304.19;5053443;28;20033;-52
2022/07/06 06:13:52;;;;;;;1.55;1.10;;;;;;;19.10;66.54;101296.38;5053700;28;20064;-51
2022/07/06 06:16:18;;;;;;;1.15;0.90;;;;;;;19.18;66.88;101290.50;5038248;28;20473;-51
2022/07/06 06:18:44;;;;;;;2.63;1.15;;;;;;;19.12;66.73;101288.00;5073905;28;20111;-51
2022/07/06 06:21:10;;;;;;;3.00;1.30;;;;;;;19.02;67.10;101291.38;5073760;28;20062;-51
2022/07/06 06:23:36;;;;;;;1.60;0.80;;;;;;;19.15;66.85;101292.91;5074029;28;20036;-50
2022/07/06 06:26:03;;;;;;;1.67;0.95;;;;;;;18.95;67.38;101288.84;5073707;28;20078;-51
2022/07/06 06:28:29;;;;;;;2.35;0.98;;;;;;;19.21;66.89;101287.31;5073678;28;20024;-48
2022/07/06 06:30:55;;;;;;;2.97;0.95;;;;;;;19.15;66.82;101295.59;5070478;28;20027;-51
2022/07/06 06:33:22;;;;;;;1.80;0.90;;;;;;;18.95;67.49;101288.03;5052995;28;20363;-51
2022/07/06 06:35:52;;;;;;;1.42;0.93;;;;;;;18.85;68.06;101288.72;5053473;28;20052;-53
2022/07/06 06:38:20;;;;;;;1.60;0.68;;;;;;;18.96;67.79;101286.97;5053435;28;20036;-49
2022/07/06 06:40:46;;;;;;;2.15;0.85;;;;;;;18.89;67.73;101289.03;5053068;28;20489;-51
2022/07/06 06:43:13;;;;;;;1.38;0.70;;;;;;;18.90;66.62;101288.78;5053446;28;20021;-51
2022/07/06 06:45:40;;;;;;;0.77;0.63;;;;;;;18.90;65.53;101288.78;5053009;28;20586;-52
2022/07/06 06:48:06;;;;;;;1.52;0.82;;;;;;;18.82;66.49;101288.38;5052225;28;20044;-49
2022/07/06 06:50:33;;;;;;;0.75;0.70;;;;;;;18.98;66.44;101287.53;5051018;28;20189;-51
2022/07/06 06:52:59;;;;;;;1.38;0.88;;;;;;;19.00;66.30;101285.41;5049699;28;20029;-51
2022/07/06 06:55:26;;;;;;;0.70;0.68;;;;;;;18.78;66.81;101287.25;5064584;28;20028;-51
2022/07/06 06:57:52;;;;;;;1.17;1.08;;;;;;;18.89;66.62;101280.91;5073224;28;20189;-52
2022/07/06 07:00:18;;;;;;;1.20;0.98;;;;;;;18.84;67.01;101275.41;5073026;28;20028;-52
2022/07/06 07:02:47;;;;;;;1.95;0.85;;;;;;;18.87;67.33;101274.88;5072797;28;20028;-52
2022/07/06 07:05:13;;;;;;;1.20;0.80;;;;;;;18.71;67.33;101280.13;5068125;28;20033;-52
2022/07/06 07:07:39;;;;;;;1.55;1.00;;;;;;;18.72;67.78;101279.06;5064779;28;20048;-49
2022/07/06 07:10:06;;;;;;;1.95;1.00;;;;;;;18.75;67.73;101279.63;5072648;28;20021;-49
2022/07/06 07:12:33;;;;;;;1.05;0.80;;;;;;;18.88;67.14;101274.66;5072735;28;20028;-51
2022/07/06 07:14:59;;;;;;;1.92;0.90;;;;;;;18.94;67.77;101272.84;5072717;28;20028;-50
2022/07/06 07:17:26;;;;;;;1.00;0.63;;;;;;;18.79;68.04;101273.44;5072703;28;20025;-51
2022/07/06 07:19:52;;;;;;;2.15;1.40;;;;;;;18.61;68.68;101274.53;5072719;28;20051;-51
2022/07/06 07:22:18;;;;;;;2.15;1.00;;;;;;;18.72;68.87;101281.75;5067098;28;20056;-49
2022/07/06 07:24:45;;;;;;;3.15;1.20;;;;;;;18.72;69.07;101275.53;5052567;28;20025;-51
2022/07/06 07:27:11;;;;;;;2.88;1.20;;;;;;;18.58;69.41;101280.44;5052541;28;20036;-51
2022/07/06 07:29:37;;;;;;;2.90;1.23;;;;;;;18.44;70.09;101279.97;5052584;28;20059;-50
2022/07/06 07:32:04;;;;;;;1.38;1.00;;;;;;;18.43;69.84;101274.75;5052198;28;20028;-51
2022/07/06 07:34:30;;;;;;;1.85;1.10;;;;;;;18.54;69.33;101273.03;5034645;28;20091;-50
2022/07/06 07:36:56;;;;;;;2.15;1.05;;;;;;;18.48;69.63;101272.13;5047442;28;20021;-50
2022/07/06 07:39:22;;;;;;;2.50;1.17;;;;;;;18.54;70.01;101279.28;5050515;28;20107;-51
2022/07/06 07:41:50;;;;;;;1.10;0.98;;;;;;;18.64;69.48;101281.31;5050991;28;20434;-51
2022/07/06 07:44:16;;;;;;;3.33;1.20;;;;;;;18.78;68.97;101284.56;5052323;28;20266;-49
2022/07/06 07:46:43;;;;;;;2.30;0.90;;;;;;;18.73;68.94;101285.28;5051381;28;20033;-51
2022/07/06 07:49:09;;;;;;;2.50;1.25;;;;;;;18.75;68.30;101280.44;5052209;28;20384;-51
2022/07/06 07:51:35;;;;;;;2.67;0.88;;;;;;;18.56;69.27;101279.88;5050898;28;20033;-51
2022/07/06 07:54:01;;;;;;;1.77;1.20;;;;;;;18.66;68.40;101290.88;5051946;28;20543;-51
2022/07/06 07:56:28;;;;;;;3.17;1.00;;;;;;;18.66;68.61;101290.88;5050984;28;20166;-51
2022/07/06 07:58:54;;;;;;;1.48;0.98;;;;;;;18.78;68.68;101284.56;5052352;28;20086;-51
2022/07/06 08:01:20;;;;;;;1.08;0.82;;;;;;;18.77;68.50;101280.16;5050881;28;20031;-48
2022/07/06 08:03:46;;;;;;;1.33;0.80;;;;;;;18.67;68.36;101289.81;5051802;28;20262;-50
2022/07/06 08:06:12;;;;;;;1.25;0.70;;;;;;;18.70;68.03;101296.63;5051944;28;20082;-52
2022/07/06 08:08:38;;;;;;;1.05;0.70;;;;;;;18.75;66.48;101287.75;5050418;28;20524;-52
2022/07/06 08:11:05;;;;;;;0.88;0.60;;;;;;;18.85;66.19;101287.91;5051766;28;20028;-50
2022/07/06 08:13:31;;;;;;;1.85;0.82;;;;;;;18.80;66.81;101288.63;5046978;28;20025;-50
2022/07/06 08:15:57;;;;;;;1.38;0.70;;;;;;;18.96;65.76;101282.34;5047566;28;20025;-51
2022/07/06 08:18:23;;;;;;;0.90;0.60;;;;;;;18.96;65.02;101278.81;5046621;28;20052;-51
2022/07/06 08:20:50;;;;;;;0.60;0.52;;;;;;;19.04;64.38;101277.56;5032398;28;20030;-50
2022/07/06 08:23:16;;;;;;;1.63;0.68;;;;;;;18.88;65.23;101276.56;5033175;28;20082;-48
2022/07/06 08:25:42;;;;;;;1.25;0.45;;;;;;;18.96;64.02;101281.53;5031378;28;20030;-51
2022/07/06 08:28:08;;;;;;;0.82;0.43;;;;;;;18.96;63.51;101282.34;5031280;28;20038;-52
2022/07/06 08:30:34;;;;;;;1.92;0.50;;;;;;;18.93;63.74;101276.59;5031163;28;20402;-48
2022/07/06 08:33:01;;;;;;;1.20;0.60;;;;;;;19.08;62.96;101281.41;5032707;28;20018;-51
2022/07/06 08:35:28;;;;;;;1.10;0.55;;;;;;;19.17;63.00;101277.19;5031899;28;20029;-51
2022/07/06 08:37:54;;;;;;;0.95;0.77;;;;;;;19.13;62.88;101284.19;5031311;28;20068;-51
2022/07/06 08:40:20;;;;;;;0.50;0.50;;;;;;;19.16;62.35;101275.56;5031242;28;20147;-50
2022/07/06 08:42:53;;;;;;;0.43;0.43;;;;;;;19.10;62.69;101273.84;5031728;28;20033;-52
2022/07/06 08:45:20;;;;;;;0.73;0.52;;;;;;;19.06;62.36;101280.84;5042847;28;20366;-51
2022/07/06 08:47:49;;;;;;;2.35;0.70;;;;;;;19.03;62.29;101279.44;5049579;28;20132;-51
2022/07/06 08:50:16;;;;;;;0.90;0.50;;;;;;;19.05;62.24;101276.50;5033161;28;20033;-50
2022/07/06 08:52:42;;;;;;;1.50;0.50;;;;;;;19.06;61.96;101272.72;5031256;28;20502;-49
2022/07/06 08:55:10;;;;;;;1.50;0.50;;;;;;;19.05;61.54;101271.91;5036761;28;20037;-48
2022/07/06 08:57:39;;;;;;;0.70;0.50;;;;;;;18.98;61.45;101276.66;5034740;28;20500;-52
2022/07/06 09:00:08;;;;;;;0.90;0.47;;;;;;;18.94;61.27;101270.13;5047876;28;20378;-52
2022/07/06 09:02:35;;;;;;;1.02;0.40;;;;;;;19.02;61.12;101280.53;5053780;28;20025;-51
2022/07/06 09:05:03;;;;;;;0.65;0.40;;;;;;;19.08;60.57;101276.81;5035753;28;20065;-48
2022/07/06 09:07:30;;;;;;;0.45;0.30;;;;;;;19.13;60.59;101276.06;5036429;28;20037;-50
2022/07/06 09:09:59;;;;;;;0.40;0.30;;;;;;;18.97;61.46;101277.75;5055274;28;20029;-48
2022/07/06 09:12:28;;;;;;;1.00;0.40;;;;;;;18.95;61.48;101278.00;5041866;28;20091;-50
2022/07/06 09:14:56;;;;;;;0.60;0.60;;;;;;;19.02;62.26;101283.25;5035417;28;20025;-48
2022/07/06 09:17:29;;;;;;;0.63;0.45;;;;;;;18.97;62.92;101278.56;5034122;28;20060;-51
2022/07/06 09:19:56;;;;;;;0.50;0.50;;;;;;;19.08;63.47;101278.69;5035243;28;20083;-51
2022/07/06 09:22:31;;;;;;;1.45;0.80;;;;;;;19.13;63.52;101276.06;5042658;28;20380;-51
2022/07/06 09:25:10;;;;;;;;;;;;;;;19.03;63.87;101274.03;5055306;28;20037;-49
2022/07/06 09:27:47;;;;;;;0.90;0.60;;;;;;;19.02;64.22;101277.81;5041271;28;20010;-51
2022/07/06 09:30:14;;;;;;;1.58;0.60;;;;;;;19.00;64.31;101277.25;5034636;28;20032;-48
2022/07/06 09:32:44;;;;;;;1.00;0.68;;;;;;;18.94;64.34;101276.38;5045651;28;20028;-48
2022/07/06 09:35:27;;;;;;;0.73;0.50;;;;;;;18.93;64.05;101282.03;5053142;28;20385;-51
2022/07/06 09:38:05;;;;;;;1.77;0.80;;;;;;;18.60;65.30;101264.75;5030899;28;20331;-48
2022/07/06 09:40:39;;;;;;;1.65;0.60;;;;;;;18.66;64.90;101269.19;5032314;28;20421;-50
2022/07/06 09:43:23;;;;;;;2.55;0.63;;;;;;;18.62;64.91;101265.31;5033831;28;20101;-48
2022/07/06 09:45:56;;;;;;;0.80;0.60;;;;;;;18.54;65.45;101263.00;5034654;28;20029;-51
2022/07/06 09:48:28;;;;;;;1.33;0.60;;;;;;;18.53;64.49;101265.97;5035862;28;20373;-48
2022/07/06 09:51:02;;;;;;;0.98;0.43;;;;;;;18.50;65.00;101264.59;5034270;28;20029;-51
2022/07/06 09:53:29;;;;;;;0.68;0.50;;;;;;;18.68;64.16;101267.06;5034797;28;20025;-50
2022/07/06 09:55:58;;;;;;;1.38;0.50;;;;;;;18.65;64.37;101277.53;5034217;28;20411;-50
2022/07/06 09:58:24;;;;;;;1.45;0.68;;;;;;;18.53;65.97;101274.09;5040634;28;20060;-51
2022/07/06 10:00:51;;;;;;;1.00;0.52;;;;;;;18.80;65.35;101274.25;5052258;28;20033;-49
2022/07/06 10:03:19;;;;;;;1.23;0.57;;;;;;;18.71;65.36;101282.84;5052269;28;20469;-48
2022/07/06 10:05:48;;;;;;;1.50;0.80;;;;;;;18.68;65.61;101277.09;5053214;28;20032;-52
2022/07/06 10:08:16;;;;;;;0.60;0.55;;;;;;;18.62;65.39;101278.88;5052418;28;20048;-48
2022/07/06 10:10:44;;;;;;;2.88;0.68;;;;;;;18.42;66.17;101268.53;5053843;28;20142;-51
2022/07/06 10:13:11;;;;;;;2.03;0.80;;;;;;;18.52;65.71;101267.06;5048094;28;20075;-50
2022/07/06 10:15:39;;;;;;;1.48;0.70;;;;;;;18.33;66.09;101270.03;5038078;28;20078;-49
2022/07/06 10:18:07;;;;;;;0.50;0.50;;;;;;;18.32;66.65;101271.09;5049365;28;20021;-50
2022/07/06 10:20:39;;;;;;;0.65;0.50;;;;;;;18.28;65.62;101269.13;5032746;28;20060;-47
2022/07/06 10:23:07;;;;;;;0.90;0.55;;;;;;;18.21;65.24;101277.41;5036038;28;20041;-51
2022/07/06 10:25:34;;;;;;;0.73;0.60;;;;;;;18.18;65.91;101281.44;5034822;28;20466;-51
2022/07/06 10:28:01;;;;;;;0.70;0.70;;;;;;;18.23;65.40;101279.88;5034990;28;20104;-47
2022/07/06 10:30:29;;;;;;;1.50;0.60;;;;;;;18.14;65.23;101282.97;5032809;28;20057;-48
2022/07/06 10:32:57;;;;;;;0.65;0.50;;;;;;;18.26;64.12;101273.94;5017358;28;20473;-48
2022/07/06 10:35:23;;;;;;;0.60;0.35;;;;;;;18.15;64.15;101268.38;5049752;28;20029;-49
2022/07/06 10:38:09;;;;;;;0.47;0.30;;;;;;;18.26;63.43;101261.22;5048262;28;20362;-50
2022/07/06 10:43:22;;;;;;;0.55;0.40;;;;;;;18.14;63.97;101269.44;5033697;28;20512;-48
2022/07/06 10:45:48;;;;;;;0.65;0.32;;;;;;;18.20;64.52;101268.44;5033565;28;20489;-47
2022/07/06 10:48:17;;;;;;;2.47;0.57;;;;;;;18.16;64.14;101264.59;5033416;28;20036;-48
2022/07/06 10:50:50;;;;;;;1.15;0.57;;;;;;;18.18;64.11;101267.88;5032744;28;20033;-48
2022/07/06 10:53:22;;;;;;;0.77;0.40;;;;;;;18.32;63.78;101267.53;5037174;28;20024;-48
2022/07/06 10:55:50;;;;;;;2.92;0.50;;;;;;;18.34;63.51;101265.44;5045893;28;20028;-51
2022/07/06 10:58:34;;;;;;;1.52;0.60;;;;;;;18.25;64.29;101253.34;5035948;28;20385;-49
2022/07/06 11:01:01;;;;;;;0.82;0.43;;;;;;;18.22;64.60;101253.84;5033746;28;20401;-48
2022/07/06 11:03:44;;;;;;;1.15;0.60;;;;;;;18.36;64.23;101257.84;5032232;28;20037;-48
2022/07/06 11:06:16;;;;;;;2.17;0.50;;;;;;;18.46;64.36;101266.16;5034285;28;20091;-51
2022/07/06 11:08:49;;;;;;;1.30;0.50;;;;;;;18.34;65.23;101268.13;5032914;28;20072;-51
2022/07/06 11:11:23;;;;;;;0.75;0.60;;;;;;;18.15;65.33;101264.84;5035377;28;20024;-50
2022/07/06 11:13:59;;;;;;;0.50;0.40;;;;;;;18.06;65.93;101264.44;5032828;28;20032;-49
2022/07/06 11:16:27;;;;;;;1.00;0.50;;;;;;;18.25;65.30;101261.47;5038398;28;20546;-47
2022/07/06 11:19:14;;;;;;;1.27;0.50;;;;;;;18.44;64.64;101260.16;5042913;28;20083;-50
2022/07/06 11:21:48;;;;;;;3.13;0.70;;;;;;;18.33;65.15;101259.19;5046480;28;20037;-49
2022/07/06 11:24:18;;;;;;;0.75;0.52;;;;;;;18.42;64.48;101259.56;5032566;28;20025;-48
2022/07/06 11:26:47;;;;;;;0.77;0.50;;;;;;;18.46;64.95;101256.13;5039395;28;20029;-50
2022/07/06 11:29:14;;;;;;;2.25;0.50;;;;;;;18.42;64.52;101256.88;5052056;28;20028;-50
2022/07/06 11:31:43;;;;;;;0.68;0.50;;;;;;;18.46;64.79;101258.03;5041011;28;20060;-48